Time;durP1;ratioP1;P1;durP2;ratioP2;P2;SDS_P1;SDS_P2;PMS_P1;PMS_P2;Temp;Humidity;BMP_temperature;BMP_pressure;BME280_temperature;BME280_humidity;BME280_pressure;Samples;Min_cycle;Max_cycle;Signal;HPM_P1;HPM_P2
2023/02/27 00:02:05;;;;;;;3.00;2.80;;;1.10;99.90;;;;;;5089489;28;20634;-71
2023/02/27 00:04:32;;;;;;;2.93;2.73;;;1.00;99.90;;;;;;5089669;28;20725;-71
2023/02/27 00:06:59;;;;;;;3.40;2.87;;;1.00;99.90;;;;;;5089362;28;20669;-71
2023/02/27 00:09:28;;;;;;;2.80;2.60;;;1.00;99.90;;;;;;5089681;28;20851;-71
2023/02/27 00:11:56;;;;;;;2.23;2.03;;;1.00;99.90;;;;;;5089795;28;20214;-71
2023/02/27 00:14:23;;;;;;;2.97;2.67;;;1.00;99.90;;;;;;5089585;28;20210;-71
2023/02/27 00:16:50;;;;;;;2.30;2.20;;;1.00;99.90;;;;;;5089109;28;20230;-71
2023/02/27 00:19:18;;;;;;;2.60;2.40;;;0.90;99.90;;;;;;5089848;28;20215;-70
2023/02/27 00:21:45;;;;;;;2.20;2.10;;;0.90;99.90;;;;;;5089613;28;20719;-71
2023/02/27 00:24:12;;;;;;;2.47;2.27;;;0.90;99.90;;;;;;5089831;28;20210;-72
2023/02/27 00:26:40;;;;;;;2.40;2.20;;;0.90;99.90;;;;;;5089896;28;20211;-72
2023/02/27 00:29:07;;;;;;;2.47;2.27;;;0.90;99.90;;;;;;5089945;28;20218;-72
2023/02/27 00:31:35;;;;;;;2.30;2.10;;;0.80;99.90;;;;;;5088920;28;20230;-71
2023/02/27 00:34:02;;;;;;;3.67;1.90;;;0.80;99.90;;;;;;5089463;28;20507;-71
2023/02/27 00:36:30;;;;;;;2.37;2.17;;;0.80;99.90;;;;;;5088973;28;20210;-71
2023/02/27 00:38:57;;;;;;;2.20;2.00;;;0.80;99.90;;;;;;5089224;28;20303;-70
2023/02/27 00:41:24;;;;;;;2.33;2.13;;;0.80;99.90;;;;;;5089066;28;20303;-70
2023/02/27 00:43:52;;;;;;;3.10;2.10;;;0.80;99.90;;;;;;5088918;28;20206;-72
2023/02/27 00:46:19;;;;;;;1.83;1.73;;;0.80;99.90;;;;;;5089177;28;20285;-71
2023/02/27 00:48:46;;;;;;;1.90;1.80;;;0.80;99.90;;;;;;5088763;28;20201;-72
2023/02/27 00:51:14;;;;;;;2.10;1.73;;;0.70;99.90;;;;;;5088888;28;20661;-72
2023/02/27 00:53:41;;;;;;;3.67;2.07;;;0.70;99.90;;;;;;5088716;28;20210;-72
2023/02/27 00:56:08;;;;;;;2.77;2.20;;;0.70;99.90;;;;;;5088855;28;20241;-72
2023/02/27 00:58:35;;;;;;;2.30;2.00;;;0.70;99.90;;;;;;5089015;28;20279;-72
2023/02/27 01:01:03;;;;;;;1.80;1.70;;;0.60;99.90;;;;;;5088727;28;20771;-72
2023/02/27 01:03:30;;;;;;;2.10;1.90;;;0.70;99.90;;;;;;5088879;28;20217;-72
2023/02/27 01:05:58;;;;;;;3.43;2.20;;;0.60;99.90;;;;;;5088433;28;20803;-72
2023/02/27 01:08:25;;;;;;;2.17;2.00;;;0.60;99.90;;;;;;5087586;28;20258;-72
2023/02/27 01:10:54;;;;;;;1.80;1.70;;;0.60;99.90;;;;;;5088429;28;20233;-72
2023/02/27 01:13:21;;;;;;;1.83;1.73;;;0.60;99.90;;;;;;5088428;28;20245;-72
2023/02/27 01:15:48;;;;;;;2.63;1.73;;;0.60;99.90;;;;;;5088201;28;20198;-72
2023/02/27 01:18:16;;;;;;;1.80;1.50;;;0.60;99.90;;;;;;5088279;28;20930;-71
2023/02/27 01:20:43;;;;;;;2.23;1.93;;;0.60;99.90;;;;;;5088486;28;20302;-71
2023/02/27 01:23:10;;;;;;;1.90;1.80;;;0.60;99.90;;;;;;5087907;28;20298;-72
2023/02/27 01:25:37;;;;;;;2.23;1.70;;;0.60;99.90;;;;;;5088359;28;20256;-72
2023/02/27 01:28:04;;;;;;;2.20;1.80;;;0.60;99.90;;;;;;5088321;28;20718;-72
2023/02/27 01:30:31;;;;;;;2.60;1.90;;;0.60;99.90;;;;;;5087653;28;20250;-71
2023/02/27 01:32:58;;;;;;;1.97;1.87;;;0.60;99.90;;;;;;5088313;28;20264;-72
2023/02/27 01:35:27;;;;;;;2.30;2.10;;;0.60;99.90;;;;;;5088534;28;20584;-72
2023/02/27 01:37:54;;;;;;;1.80;1.70;;;0.50;99.90;;;;;;5088066;28;20266;-73
2023/02/27 01:40:21;;;;;;;1.50;1.40;;;0.50;99.90;;;;;;5088365;28;20254;-73
2023/02/27 01:42:48;;;;;;;2.00;1.70;;;0.50;99.90;;;;;;5077843;28;20191;-72
2023/02/27 01:45:33;;;;;;;1.73;1.63;;;0.50;99.90;;;;;;5088362;28;20303;-72
2023/02/27 01:48:06;;;;;;;1.77;1.67;;;0.50;99.90;;;;;;5076755;28;20824;-70
2023/02/27 01:50:36;;;;;;;1.60;1.50;;;0.40;99.90;;;;;;5067692;28;20195;-71
2023/02/27 01:53:04;;;;;;;1.63;1.50;;;0.40;99.90;;;;;;5087956;28;20276;-71
2023/02/27 01:55:37;;;;;;;1.67;1.57;;;0.40;99.90;;;;;;5087827;28;20230;-71
2023/02/27 01:58:05;;;;;;;1.50;1.40;;;0.40;99.90;;;;;;5087799;28;20223;-71
2023/02/27 02:00:33;;;;;;;3.13;1.67;;;0.40;99.90;;;;;;5087505;28;20223;-71
2023/02/27 02:03:10;;;;;;;1.83;1.73;;;0.30;99.90;;;;;;5087958;28;20207;-71
2023/02/27 02:05:39;;;;;;;1.40;1.30;;;0.30;99.90;;;;;;5087400;28;20651;-71
2023/02/27 02:08:07;;;;;;;3.13;1.63;;;0.40;99.90;;;;;;5086987;28;20272;-71
2023/02/27 02:10:34;;;;;;;1.70;1.60;;;0.30;99.90;;;;;;5087492;28;20242;-71
2023/02/27 02:13:01;;;;;;;2.30;1.57;;;0.30;99.90;;;;;;5087705;28;20653;-71
2023/02/27 02:15:37;;;;;;;1.53;1.43;;;0.30;99.90;;;;;;5104735;28;20237;-71
2023/02/27 02:18:18;;;;;;;1.87;1.30;;;0.30;99.90;;;;;;5092182;28;20222;-71
2023/02/27 02:21:15;;;;;;;2.00;1.90;;;0.20;99.90;;;;;;5067313;28;20195;-71
2023/02/27 02:24:21;;;;;;;1.63;1.53;;;0.20;99.90;;;;;;5095472;28;20282;-71
2023/02/27 02:26:56;;;;;;;1.70;1.60;;;0.20;99.90;;;;;;5035784;28;20302;-71
2023/02/27 02:30:05;;;;;;;1.93;1.73;;;0.20;99.90;;;;;;5087584;28;20639;-71
2023/02/27 02:33:32;;;;;;;1.50;1.40;;;0.20;99.90;;;;;;5087374;28;20255;-70
2023/02/27 02:36:45;;;;;;;1.47;1.23;;;0.20;99.90;;;;;;4985289;28;20198;-71
2023/02/27 02:39:34;;;;;;;1.63;1.53;;;0.20;99.90;;;;;;5067845;28;20711;-72
2023/02/27 02:42:08;;;;;;;2.10;1.60;;;0.20;99.90;;;;;;5087423;28;20198;-72
2023/02/27 02:44:43;;;;;;;1.47;1.43;;;0.20;99.90;;;;;;5087566;28;20603;-73
2023/02/27 02:47:20;;;;;;;1.70;1.50;;;0.20;99.90;;;;;;5087440;28;20198;-71
2023/02/27 02:49:55;;;;;;;1.60;1.50;;;0.20;99.90;;;;;;5087108;28;20809;-71
2023/02/27 02:52:31;;;;;;;2.40;1.40;;;0.10;99.90;;;;;;5087265;28;20292;-71
2023/02/27 02:55:09;;;;;;;3.27;1.50;;;0.20;99.90;;;;;;5087243;28;20220;-72
2023/02/27 02:57:40;;;;;;;2.13;1.20;;;0.20;99.90;;;;;;5087237;28;20795;-72
2023/02/27 03:00:18;;;;;;;1.40;1.30;;;0.10;99.90;;;;;;5087460;28;20205;-72
2023/02/27 03:02:49;;;;;;;3.30;1.00;;;0.10;99.90;;;;;;5087225;28;20849;-72
2023/02/27 03:05:22;;;;;;;1.67;1.40;;;0.10;99.90;;;;;;5087002;28;20207;-72
2023/02/27 03:07:53;;;;;;;1.20;1.10;;;0.10;99.90;;;;;;5086491;28;20310;-71
2023/02/27 03:10:26;;;;;;;1.70;1.40;;;0.10;99.90;;;;;;5086662;28;20199;-71
2023/02/27 03:13:00;;;;;;;1.60;1.50;;;0.10;99.90;;;;;;5086914;28;20195;-72
2023/02/27 03:15:30;;;;;;;1.73;1.37;;;0.10;99.90;;;;;;5086032;28;20222;-72
2023/02/27 03:18:03;;;;;;;1.23;1.13;;;0.20;99.90;;;;;;5084611;28;20310;-69
2023/02/27 03:20:35;;;;;;;1.20;1.17;;;0.20;99.90;;;;;;5084626;28;20662;-69
2023/02/27 03:23:08;;;;;;;1.23;1.03;;;0.30;99.90;;;;;;5086668;28;20288;-72
2023/02/27 03:25:38;;;;;;;1.87;1.50;;;0.20;99.90;;;;;;5086795;28;21198;-69
2023/02/27 03:28:09;;;;;;;1.20;1.20;;;0.20;99.90;;;;;;5085005;28;20325;-68
2023/02/27 03:30:41;;;;;;;1.87;1.53;;;0.20;99.90;;;;;;5084867;28;20921;-69
2023/02/27 03:33:13;;;;;;;1.40;1.30;;;0.10;99.90;;;;;;5087149;28;20778;-69
2023/02/27 03:35:47;;;;;;;1.10;1.10;;;0.00;99.90;;;;;;5088378;28;20406;-69
2023/02/27 03:38:22;;;;;;;1.40;1.30;;;0.00;99.90;;;;;;5088321;28;20223;-69
2023/02/27 03:40:56;;;;;;;1.20;1.20;;;-0.10;99.90;;;;;;5087822;28;20645;-69
2023/02/27 03:43:30;;;;;;;1.40;1.30;;;-0.10;99.90;;;;;;5087871;28;20678;-69
2023/02/27 03:46:03;;;;;;;1.47;1.37;;;-0.10;99.90;;;;;;5088572;28;20234;-69
2023/02/27 03:48:31;;;;;;;1.40;1.10;;;-0.20;99.90;;;;;;5088073;28;20297;-68
2023/02/27 03:50:58;;;;;;;1.60;1.30;;;-0.20;99.90;;;;;;5087349;28;20222;-69
2023/02/27 03:53:30;;;;;;;1.00;1.00;;;-0.20;99.90;;;;;;5087191;28;20203;-69
2023/02/27 03:56:01;;;;;;;1.43;1.33;;;-0.30;99.90;;;;;;5088324;28;20203;-69
2023/02/27 03:58:28;;;;;;;1.97;1.50;;;-0.30;99.90;;;;;;5086906;28;20871;-69
2023/02/27 04:00:55;;;;;;;2.40;1.30;;;-0.40;99.90;;;;;;5089992;28;20295;-69
2023/02/27 04:03:23;;;;;;;1.50;1.40;;;-0.40;99.90;;;;;;5089939;28;20213;-70
2023/02/27 04:05:50;;;;;;;1.40;1.30;;;-0.40;99.90;;;;;;5088245;28;20329;-70
2023/02/27 04:08:38;;;;;;;1.10;1.10;;;-0.40;99.90;;;;;;5082860;28;20249;-70
2023/02/27 04:11:29;;;;;;;1.40;1.30;;;-0.40;99.90;;;;;;5089647;28;20271;-70
2023/02/27 04:14:29;;;;;;;1.27;1.17;;;-0.30;99.90;;;;;;5088099;28;20287;-72
2023/02/27 04:17:15;;;;;;;1.20;1.10;;;-0.40;99.90;;;;;;5064470;28;20238;-69
2023/02/27 04:20:09;;;;;;;1.43;1.20;;;-0.30;99.90;;;;;;5075364;28;20311;-70
2023/02/27 04:22:39;;;;;;;1.67;1.33;;;-0.30;99.90;;;;;;5081816;28;20238;-69
2023/02/27 04:25:32;;;;;;;1.40;1.30;;;-0.30;99.90;;;;;;5089719;28;20286;-71
2023/02/27 04:28:09;;;;;;;1.50;1.40;;;-0.40;99.90;;;;;;5089394;28;20195;-71
2023/02/27 04:30:45;;;;;;;1.10;1.10;;;-0.50;99.90;;;;;;5088891;28;20194;-71
2023/02/27 04:33:18;;;;;;;1.70;1.40;;;-0.50;99.90;;;;;;5089341;28;20290;-71
2023/02/27 04:35:50;;;;;;;2.00;1.40;;;-0.50;99.90;;;;;;5088767;28;20290;-71
2023/02/27 04:38:21;;;;;;;1.33;1.23;;;-0.50;99.90;;;;;;5088790;28;20326;-70
2023/02/27 04:40:52;;;;;;;1.87;1.30;;;-0.50;99.90;;;;;;5089123;28;20314;-70
2023/02/27 04:43:23;;;;;;;2.80;1.53;;;-0.50;99.90;;;;;;5089142;28;20218;-71
2023/02/27 04:45:51;;;;;;;1.77;1.67;;;-0.60;99.90;;;;;;5068618;28;20234;-70
2023/02/27 04:48:22;;;;;;;1.70;1.60;;;-0.60;99.90;;;;;;5074974;28;20664;-70
2023/02/27 04:50:54;;;;;;;2.30;1.73;;;-0.60;99.90;;;;;;5088785;28;20318;-70
2023/02/27 04:53:25;;;;;;;1.43;1.33;;;-0.60;99.90;;;;;;5088572;28;20269;-70
2023/02/27 04:55:57;;;;;;;2.23;1.70;;;-0.70;99.90;;;;;;5088649;28;20242;-70
2023/02/27 04:58:28;;;;;;;1.70;1.60;;;-0.70;99.90;;;;;;5088610;28;20219;-70
2023/02/27 05:01:01;;;;;;;1.83;1.50;;;-0.70;99.90;;;;;;5088992;28;20273;-70
2023/02/27 05:03:32;;;;;;;1.90;1.80;;;-0.70;99.90;;;;;;5088353;28;20714;-71
2023/02/27 05:06:02;;;;;;;1.77;1.67;;;-0.80;99.90;;;;;;5088318;28;20679;-70
2023/02/27 05:08:36;;;;;;;1.67;1.57;;;-0.70;99.90;;;;;;5087827;28;20788;-71
2023/02/27 05:11:09;;;;;;;2.73;1.80;;;-0.70;99.90;;;;;;5088545;28;20226;-70
2023/02/27 05:13:41;;;;;;;1.37;1.27;;;-0.70;99.90;;;;;;5088500;28;20333;-70
2023/02/27 05:16:16;;;;;;;1.50;1.40;;;-0.70;99.90;;;;;;5088530;28;20195;-70
2023/02/27 05:18:44;;;;;;;6.00;1.60;;;-0.80;99.90;;;;;;5088353;28;20275;-70
2023/02/27 05:21:21;;;;;;;2.23;1.57;;;-0.80;99.90;;;;;;5087987;28;20210;-71
2023/02/27 05:23:56;;;;;;;1.60;1.50;;;-0.80;99.90;;;;;;5087982;28;20195;-71
2023/02/27 05:26:32;;;;;;;3.00;1.90;;;-0.80;99.90;;;;;;5088478;28;20218;-71
2023/02/27 05:29:07;;;;;;;2.00;1.50;;;-0.90;99.90;;;;;;5088452;28;20293;-70
2023/02/27 05:31:41;;;;;;;1.90;1.70;;;-0.90;99.90;;;;;;5074019;28;20230;-70
2023/02/27 05:34:11;;;;;;;2.60;1.80;;;-0.90;99.90;;;;;;5085907;28;20365;-70
2023/02/27 05:36:43;;;;;;;2.23;2.03;;;-0.90;99.90;;;;;;5088042;28;20294;-70
2023/02/27 05:39:11;;;;;;;2.03;1.83;;;-0.90;99.90;;;;;;5087692;28;20295;-70
2023/02/27 05:41:43;;;;;;;2.07;1.50;;;-0.90;99.90;;;;;;5088018;28;20302;-70
2023/02/27 05:44:16;;;;;;;1.53;1.43;;;-0.90;99.90;;;;;;5087826;28;20939;-70
2023/02/27 05:46:48;;;;;;;3.00;2.70;;;-0.90;99.90;;;;;;5087907;28;20521;-70
2023/02/27 05:49:18;;;;;;;3.43;3.03;;;-0.90;99.90;;;;;;5087613;28;20233;-71
2023/02/27 05:51:49;;;;;;;6.77;4.33;;;-0.90;99.90;;;;;;5087904;28;20191;-71
2023/02/27 05:54:22;;;;;;;4.13;3.13;;;-0.90;99.90;;;;;;5087916;28;20198;-71
2023/02/27 05:56:53;;;;;;;3.50;3.10;;;-1.00;99.90;;;;;;5087527;28;20294;-70
2023/02/27 05:59:29;;;;;;;3.47;2.63;;;-0.90;99.90;;;;;;5086231;28;20874;-71
2023/02/27 06:01:56;;;;;;;5.10;3.20;;;-1.00;99.90;;;;;;5087721;28;20298;-70
2023/02/27 06:04:23;;;;;;;4.17;2.73;;;-1.00;99.90;;;;;;5087639;28;20286;-71
2023/02/27 06:06:50;;;;;;;3.87;2.70;;;-1.00;99.90;;;;;;5086959;28;20329;-70
2023/02/27 06:09:17;;;;;;;3.87;2.67;;;-1.00;99.90;;;;;;5087651;28;20287;-71
2023/02/27 06:11:43;;;;;;;4.30;2.23;;;-1.00;99.90;;;;;;5087110;28;20302;-71
2023/02/27 06:14:10;;;;;;;2.40;2.20;;;-1.00;99.90;;;;;;5087714;28;20238;-70
2023/02/27 06:16:38;;;;;;;2.27;2.07;;;-1.00;99.90;;;;;;5087145;28;20291;-70
2023/02/27 06:19:06;;;;;;;2.50;1.93;;;-0.90;99.90;;;;;;5079212;28;20712;-71
2023/02/27 06:21:33;;;;;;;2.30;2.00;;;-1.00;99.90;;;;;;5069510;28;20309;-70
2023/02/27 06:24:00;;;;;;;1.80;1.70;;;-1.00;99.90;;;;;;5087319;28;20244;-70
2023/02/27 06:26:27;;;;;;;1.70;1.60;;;-0.80;99.90;;;;;;5087455;28;20622;-70
2023/02/27 06:28:54;;;;;;;1.87;1.53;;;-0.70;99.90;;;;;;5081223;28;20647;-70
2023/02/27 06:31:21;;;;;;;1.80;1.70;;;-0.60;99.90;;;;;;5069594;28;20656;-71
2023/02/27 06:33:49;;;;;;;2.70;1.80;;;-0.50;99.90;;;;;;5086862;28;20205;-71
2023/02/27 06:36:16;;;;;;;1.97;1.50;;;-0.60;99.90;;;;;;5087075;28;20741;-70
2023/02/27 06:38:43;;;;;;;1.50;1.40;;;-0.70;99.90;;;;;;5086834;28;20304;-70
2023/02/27 06:41:10;;;;;;;1.40;1.30;;;-0.80;99.90;;;;;;5087083;28;20203;-71
2023/02/27 06:43:36;;;;;;;2.17;1.50;;;-0.80;99.90;;;;;;5086889;28;20256;-70
2023/02/27 06:46:03;;;;;;;2.37;1.40;;;-0.90;99.90;;;;;;5086950;28;20697;-71
2023/02/27 06:48:30;;;;;;;1.60;1.50;;;-0.90;99.90;;;;;;5087087;28;20376;-70
2023/02/27 06:50:59;;;;;;;1.97;1.60;;;-1.00;99.90;;;;;;5087162;28;20256;-71
2023/02/27 06:53:26;;;;;;;2.30;1.33;;;-1.00;99.90;;;;;;5087136;28;20210;-70
2023/02/27 06:55:53;;;;;;;1.37;1.27;;;-1.00;99.90;;;;;;5086919;28;20234;-70
2023/02/27 06:58:20;;;;;;;1.67;1.50;;;-1.00;99.90;;;;;;5087138;28;20211;-70
2023/02/27 07:00:47;;;;;;;1.63;1.53;;;-1.00;99.90;;;;;;5086746;28;20293;-71
2023/02/27 07:03:14;;;;;;;1.93;1.83;;;-1.00;99.90;;;;;;5087000;28;20286;-70
2023/02/27 07:05:41;;;;;;;2.80;1.90;;;-1.00;99.90;;;;;;5087033;28;20230;-70
2023/02/27 07:08:10;;;;;;;3.07;1.80;;;-1.00;99.90;;;;;;5088783;28;20760;-71
2023/02/27 07:10:38;;;;;;;2.70;1.60;;;-1.00;99.90;;;;;;5090551;28;20696;-70
2023/02/27 07:13:05;;;;;;;1.80;1.70;;;-0.90;99.90;;;;;;5090914;28;20234;-70
2023/02/27 07:15:32;;;;;;;2.70;1.87;;;-0.80;99.90;;;;;;5090664;28;20285;-71
2023/02/27 07:17:59;;;;;;;3.47;2.40;;;-0.80;99.90;;;;;;5090844;28;20293;-70
2023/02/27 07:20:26;;;;;;;3.00;2.40;;;-0.80;99.90;;;;;;5090920;28;20246;-70
2023/02/27 07:22:53;;;;;;;3.17;2.83;;;-0.80;99.90;;;;;;5089894;28;20250;-71
2023/02/27 07:25:21;;;;;;;3.70;2.60;;;-0.70;99.90;;;;;;5090352;28;20840;-71
2023/02/27 07:27:49;;;;;;;2.67;2.07;;;-0.70;99.90;;;;;;5090843;28;20245;-71
2023/02/27 07:30:17;;;;;;;1.83;1.70;;;-0.60;99.90;;;;;;5090609;28;20194;-71
2023/02/27 07:32:43;;;;;;;3.20;2.10;;;-0.60;99.90;;;;;;5090221;28;20366;-71
2023/02/27 07:35:12;;;;;;;2.23;2.07;;;-0.50;99.90;;;;;;5090662;28;20297;-70
2023/02/27 07:37:39;;;;;;;4.17;2.23;;;-0.50;99.90;;;;;;5090231;28;20289;-71
2023/02/27 07:40:07;;;;;;;2.90;2.30;;;-0.40;99.90;;;;;;5090441;28;20322;-71
2023/02/27 07:42:36;;;;;;;2.43;2.23;;;-0.50;99.90;;;;;;5090445;28;20633;-71
2023/02/27 07:45:03;;;;;;;2.37;2.17;;;-0.40;99.90;;;;;;5090618;28;20249;-71
2023/02/27 07:47:30;;;;;;;4.17;2.40;;;-0.40;99.90;;;;;;5090188;28;20206;-71
2023/02/27 07:49:57;;;;;;;2.50;2.17;;;-0.40;99.90;;;;;;5090068;28;20207;-70
2023/02/27 07:52:24;;;;;;;4.17;2.70;;;-0.30;99.90;;;;;;5089608;28;20204;-71
2023/02/27 07:54:51;;;;;;;2.60;2.40;;;-0.30;99.90;;;;;;5089948;28;20245;-71
2023/02/27 07:57:18;;;;;;;2.97;2.53;;;-0.20;99.90;;;;;;5090061;28;20649;-70
2023/02/27 07:59:47;;;;;;;3.20;2.50;;;-0.20;99.90;;;;;;5090009;28;20313;-71
2023/02/27 08:02:14;;;;;;;2.80;2.60;;;-0.20;99.90;;;;;;5089508;28;20199;-70
2023/02/27 08:04:41;;;;;;;4.27;2.47;;;-0.10;99.90;;;;;;5089016;28;20217;-70
2023/02/27 08:07:08;;;;;;;3.50;2.27;;;0.00;99.90;;;;;;5089215;28;20602;-71
2023/02/27 08:09:35;;;;;;;2.70;2.50;;;0.00;99.90;;;;;;5089668;28;20234;-72
2023/02/27 08:12:03;;;;;;;2.93;2.30;;;0.00;99.90;;;;;;5083258;28;20207;-71
2023/02/27 08:14:30;;;;;;;2.30;2.20;;;0.00;99.90;;;;;;5089686;28;20211;-70
2023/02/27 08:16:59;;;;;;;6.50;2.40;;;0.00;99.90;;;;;;5089528;28;20246;-70
2023/02/27 08:19:26;;;;;;;4.30;2.30;;;0.00;99.90;;;;;;5089106;28;20230;-70
2023/02/27 08:21:52;;;;;;;3.47;2.20;;;0.00;99.90;;;;;;5089060;28;20294;-70
2023/02/27 08:24:19;;;;;;;2.90;2.30;;;0.10;99.90;;;;;;5089132;28;20234;-70
2023/02/27 08:26:46;;;;;;;2.23;2.03;;;0.10;99.90;;;;;;5089111;28;20297;-70
2023/02/27 08:29:13;;;;;;;2.23;2.03;;;0.00;99.90;;;;;;5089269;28;20203;-70
2023/02/27 08:31:40;;;;;;;2.63;2.43;;;0.00;99.90;;;;;;5089136;28;20212;-71
2023/02/27 08:34:08;;;;;;;2.63;2.43;;;0.10;99.90;;;;;;5088871;28;20206;-70
2023/02/27 08:36:36;;;;;;;3.60;2.57;;;0.10;99.90;;;;;;5088795;28;20298;-70
2023/02/27 08:39:03;;;;;;;2.57;2.40;;;0.10;99.90;;;;;;5088757;28;20262;-70
2023/02/27 08:41:30;;;;;;;2.57;2.30;;;0.10;99.90;;;;;;5088659;28;20207;-70
2023/02/27 08:43:57;;;;;;;2.53;2.27;;;0.20;99.90;;;;;;5089091;28;20242;-70
2023/02/27 08:46:23;;;;;;;3.57;2.50;;;0.30;99.90;;;;;;5088910;28;20238;-70
2023/02/27 08:48:50;;;;;;;2.77;2.47;;;0.40;99.90;;;;;;5082988;28;20484;-70
2023/02/27 08:51:19;;;;;;;2.60;2.40;;;0.40;99.90;;;;;;5083107;28;20306;-70
2023/02/27 08:53:46;;;;;;;3.17;2.67;;;0.50;99.90;;;;;;5088629;28;20238;-70
2023/02/27 08:56:12;;;;;;;4.33;2.53;;;0.60;99.90;;;;;;5088458;28;20371;-70
2023/02/27 08:58:39;;;;;;;3.30;2.60;;;0.70;99.90;;;;;;5088459;28;20238;-70
2023/02/27 09:01:06;;;;;;;3.80;2.70;;;0.80;99.90;;;;;;5088600;28;20321;-70
2023/02/27 09:03:33;;;;;;;4.20;2.90;;;0.90;99.90;;;;;;5088234;28;20250;-70
2023/02/27 09:06:00;;;;;;;6.27;3.00;;;1.00;99.90;;;;;;5088353;28;20289;-70
2023/02/27 09:08:29;;;;;;;3.10;2.90;;;1.00;99.90;;;;;;5088178;28;20242;-70
2023/02/27 09:10:57;;;;;;;3.00;2.67;;;1.10;99.90;;;;;;5088327;28;20286;-70
2023/02/27 09:13:25;;;;;;;8.33;3.00;;;1.10;99.90;;;;;;5088790;28;20276;-70
2023/02/27 09:15:53;;;;;;;3.07;2.80;;;1.20;99.90;;;;;;5088441;28;20203;-70
2023/02/27 09:18:19;;;;;;;3.03;2.83;;;1.30;99.90;;;;;;5087087;28;20348;-70
2023/02/27 09:20:49;;;;;;;2.80;2.60;;;1.40;99.90;;;;;;5068337;28;20297;-70
2023/02/27 09:23:17;;;;;;;5.10;3.00;;;1.40;99.90;;;;;;5088517;28;20287;-70
2023/02/27 09:25:47;;;;;;;3.37;2.80;;;1.50;99.90;;;;;;5088058;28;20680;-70
2023/02/27 09:28:14;;;;;;;4.93;2.93;;;1.60;99.90;;;;;;5088352;28;20203;-70
2023/02/27 09:30:41;;;;;;;6.20;2.60;;;1.70;99.90;;;;;;5087352;28;20195;-70
2023/02/27 09:33:08;;;;;;;6.07;2.90;;;1.70;99.90;;;;;;5088399;28;20245;-70
2023/02/27 09:35:35;;;;;;;4.90;3.53;;;1.80;99.90;;;;;;5088308;28;20635;-70
2023/02/27 09:38:02;;;;;;;3.10;2.80;;;1.80;99.90;;;;;;5087761;28;20293;-70
2023/02/27 09:40:30;;;;;;;4.20;2.87;;;1.80;99.90;;;;;;5088212;28;20269;-70
2023/02/27 09:43:03;;;;;;;5.27;3.60;;;1.90;99.90;;;;;;5087696;28;20685;-70
2023/02/27 09:45:37;;;;;;;4.77;3.37;;;2.00;99.90;;;;;;5087953;28;20205;-70
2023/02/27 09:48:12;;;;;;;5.53;3.23;;;2.10;99.90;;;;;;5088083;28;20202;-70
2023/02/27 09:50:42;;;;;;;4.50;3.10;;;2.10;99.90;;;;;;5067485;28;20609;-70
2023/02/27 09:53:13;;;;;;;4.83;3.10;;;2.20;99.90;;;;;;5080891;28;20293;-70
2023/02/27 09:55:42;;;;;;;3.93;3.10;;;2.30;99.90;;;;;;5087446;28;20206;-70
2023/02/27 09:58:31;;;;;;;3.13;2.90;;;2.30;99.90;;;;;;5087798;28;20275;-71
2023/02/27 10:01:05;;;;;;;3.43;3.00;;;2.40;99.90;;;;;;5087423;28;20776;-70
2023/02/27 10:03:47;;;;;;;3.40;2.87;;;2.40;99.90;;;;;;5087280;28;20279;-70
2023/02/27 10:06:23;;;;;;;3.50;3.20;;;2.40;99.90;;;;;;5087617;28;20241;-71
2023/02/27 10:09:10;;;;;;;6.73;3.57;;;2.40;99.90;;;;;;5087016;28;20341;-70
2023/02/27 10:11:49;;;;;;;4.23;3.30;;;2.40;99.90;;;;;;5087498;28;20290;-70
2023/02/27 10:14:37;;;;;;;3.93;3.03;;;2.40;99.90;;;;;;5087653;28;20259;-70
2023/02/27 10:17:11;;;;;;;3.63;2.70;;;2.50;99.90;;;;;;5087629;28;20578;-71
2023/02/27 10:19:39;;;;;;;4.17;2.73;;;2.50;99.90;;;;;;5087280;28;20202;-70
2023/02/27 10:22:11;;;;;;;4.93;3.27;;;2.50;99.90;;;;;;5087203;28;20198;-70
2023/02/27 10:24:42;;;;;;;3.13;2.80;;;2.50;99.90;;;;;;5067050;28;20235;-70
2023/02/27 10:27:15;;;;;;;3.67;2.53;;;2.60;99.90;;;;;;5071354;28;20318;-70
2023/02/27 10:29:44;;;;;;;4.97;3.03;;;2.60;99.90;;;;;;5087327;28;20199;-70
2023/02/27 10:32:14;;;;;;;6.37;3.07;;;2.60;99.90;;;;;;5087408;28;20311;-70
2023/02/27 10:34:43;;;;;;;3.00;2.80;;;2.70;99.90;;;;;;5087359;28;20226;-70
2023/02/27 10:37:14;;;;;;;3.10;2.90;;;2.80;99.90;;;;;;5087011;28;20242;-70
2023/02/27 10:39:46;;;;;;;5.63;2.93;;;2.80;99.90;;;;;;5066703;28;20318;-70
2023/02/27 10:42:15;;;;;;;2.83;2.63;;;2.90;99.90;;;;;;5070404;28;20279;-70
2023/02/27 10:44:45;;;;;;;3.03;2.83;;;3.00;99.90;;;;;;5091581;28;20210;-70
2023/02/27 10:47:14;;;;;;;5.20;3.30;;;3.10;99.90;;;;;;5091525;28;20224;-70
2023/02/27 10:49:42;;;;;;;4.90;2.70;;;3.20;99.90;;;;;;5077964;28;20706;-70
2023/02/27 10:52:12;;;;;;;4.23;2.63;;;3.30;99.90;;;;;;5085932;28;20253;-71
2023/02/27 10:54:40;;;;;;;2.60;2.40;;;3.40;99.90;;;;;;5091204;28;20285;-70
2023/02/27 10:57:21;;;;;;;4.20;2.77;;;3.50;99.90;;;;;;5091336;28;20207;-70
2023/02/27 10:59:54;;;;;;;6.27;2.37;;;3.60;99.90;;;;;;5091052;28;20267;-70
2023/02/27 11:02:24;;;;;;;5.70;2.53;;;3.80;99.90;;;;;;5090968;28;20673;-71
2023/02/27 11:04:53;;;;;;;2.73;2.50;;;3.90;99.90;;;;;;5091122;28;20705;-70
2023/02/27 11:07:29;;;;;;;2.50;2.30;;;4.00;99.90;;;;;;5091075;28;20325;-71
2023/02/27 11:10:01;;;;;;;2.83;2.60;;;4.10;99.90;;;;;;5091011;28;20289;-72
2023/02/27 11:12:30;;;;;;;2.87;2.53;;;4.20;99.90;;;;;;5090968;28;20380;-71
2023/02/27 11:15:01;;;;;;;2.83;2.63;;;4.40;99.90;;;;;;5091287;28;20292;-71
2023/02/27 11:17:31;;;;;;;2.90;2.60;;;4.60;99.90;;;;;;5070978;28;20317;-71
2023/02/27 11:19:59;;;;;;;3.67;2.60;;;4.80;99.90;;;;;;5070788;28;20623;-71
2023/02/27 11:22:28;;;;;;;6.07;2.73;;;4.90;99.90;;;;;;5090939;28;20206;-71
2023/02/27 11:25:19;;;;;;;2.57;2.33;;;4.90;99.90;;;;;;5090831;28;20198;-71
2023/02/27 11:27:46;;;;;;;3.07;2.50;;;5.00;99.90;;;;;;5070060;28;20195;-71
2023/02/27 11:30:25;;;;;;;5.43;2.87;;;5.10;99.90;;;;;;5070238;28;20227;-71
2023/02/27 11:32:55;;;;;;;5.80;2.63;;;5.10;99.90;;;;;;5070620;28;20619;-71
2023/02/27 11:35:26;;;;;;;2.77;2.57;;;5.00;99.90;;;;;;5073607;28;20248;-70
2023/02/27 11:37:55;;;;;;;2.53;2.33;;;4.90;99.90;;;;;;5090304;28;20282;-71
2023/02/27 11:40:26;;;;;;;3.07;2.47;;;4.90;99.90;;;;;;5090395;28;20237;-71
2023/02/27 11:42:57;;;;;;;3.50;2.50;;;4.80;99.90;;;;;;5090093;28;20286;-71
2023/02/27 11:45:34;;;;;;;2.20;2.00;;;4.70;99.90;;;;;;5090320;28;20230;-71
2023/02/27 11:48:08;;;;;;;4.67;2.13;;;4.60;99.90;;;;;;5090167;28;20311;-71
2023/02/27 11:50:56;;;;;;;3.20;1.60;;;4.50;99.90;;;;;;5070173;28;20195;-71
2023/02/27 11:53:44;;;;;;;2.10;1.90;;;4.60;99.90;;;;;;5088883;28;20668;-71
2023/02/27 11:56:14;;;;;;;3.00;2.10;;;4.90;99.90;;;;;;5089791;28;20282;-72
2023/02/27 11:58:50;;;;;;;5.77;2.07;;;5.20;99.90;;;;;;5089870;28;20199;-72
2023/02/27 12:01:23;;;;;;;3.20;1.27;;;5.20;99.90;;;;;;5090328;28;20313;-72
2023/02/27 12:03:56;;;;;;;1.87;1.23;;;5.40;99.90;;;;;;5089979;28;20248;-72
2023/02/27 12:06:29;;;;;;;0.90;0.90;;;5.80;99.90;;;;;;5090230;28;20297;-73
2023/02/27 12:09:00;;;;;;;0.87;0.80;;;6.00;99.90;;;;;;5089443;28;20787;-72
2023/02/27 12:11:31;;;;;;;2.07;1.03;;;6.00;99.90;;;;;;5090038;28;20237;-72
2023/02/27 12:14:03;;;;;;;1.93;0.80;;;6.20;99.90;;;;;;5089953;28;20740;-72
2023/02/27 12:16:37;;;;;;;1.07;0.53;;;6.50;99.90;;;;;;5089382;28;20715;-72
2023/02/27 12:19:16;;;;;;;0.80;0.77;;;6.80;99.90;;;;;;5089358;28;20237;-72
2023/02/27 12:21:45;;;;;;;4.43;1.00;;;7.10;99.90;;;;;;5089202;28;20225;-72
2023/02/27 12:24:21;;;;;;;2.30;1.00;;;7.20;99.90;;;;;;5089056;28;20302;-72
2023/02/27 12:26:52;;;;;;;2.17;1.53;;;7.40;99.90;;;;;;5089214;28;20718;-72
2023/02/27 12:29:27;;;;;;;1.73;0.80;;;7.80;99.90;;;;;;5089600;28;20710;-72
2023/02/27 12:32:00;;;;;;;2.77;0.90;;;7.90;99.90;;;;;;5088683;28;20672;-72
2023/02/27 12:34:35;;;;;;;3.77;1.00;;;8.10;99.90;;;;;;5068622;28;20191;-72
2023/02/27 12:37:04;;;;;;;0.50;0.50;;;8.10;99.90;;;;;;5082431;28;20676;-72
2023/02/27 12:39:33;;;;;;;2.17;0.70;;;7.80;99.90;;;;;;5088779;28;20226;-72
2023/02/27 12:42:27;;;;;;;1.33;1.07;;;7.70;99.90;;;;;;5088898;28;20230;-72
2023/02/27 12:45:22;;;;;;;1.07;0.80;;;7.80;99.90;;;;;;5077180;28;20299;-72
2023/02/27 12:47:58;;;;;;;3.17;1.00;;;7.90;99.90;;;;;;5068661;28;20231;-72
2023/02/27 12:50:30;;;;;;;0.80;0.80;;;7.70;99.90;;;;;;5071055;28;20853;-72
2023/02/27 12:53:05;;;;;;;2.70;0.70;;;7.40;99.90;;;;;;5088840;28;20298;-72
2023/02/27 12:55:37;;;;;;;0.77;0.73;;;7.10;99.80;;;;;;5088542;28;20289;-72
2023/02/27 12:58:21;;;;;;;0.80;0.80;;;7.10;99.90;;;;;;5088482;28;20738;-72
2023/02/27 13:00:53;;;;;;;0.73;0.50;;;7.30;99.90;;;;;;5088880;28;20569;-72
2023/02/27 13:03:26;;;;;;;0.50;0.50;;;7.20;99.90;;;;;;5088700;28;20199;-72
2023/02/27 13:06:00;;;;;;;1.40;0.57;;;7.20;99.90;;;;;;5088909;28;20575;-72
2023/02/27 13:08:53;;;;;;;0.73;0.40;;;7.00;99.90;;;;;;5088116;28;20241;-71
2023/02/27 13:11:30;;;;;;;0.67;0.67;;;6.90;99.90;;;;;;5088544;28;20672;-72
2023/02/27 13:14:01;;;;;;;0.60;0.50;;;6.70;99.90;;;;;;5088809;28;20274;-72
2023/02/27 13:16:34;;;;;;;0.47;0.47;;;6.70;99.90;;;;;;5088678;28;20294;-72